sensor_id;sensor_type;location;lat;lon;timestamp;P1;durP1;ratioP1;P2;durP2;ratioP2
59766;SDS011;46248;58.364;25.582;2023-07-13T00:02:07;7.00;;;3.67;;
59766;SDS011;46248;58.364;25.582;2023-07-13T00:05:31;8.15;;;3.90;;
59766;SDS011;46248;58.364;25.582;2023-07-13T00:08:53;6.80;;;3.95;;
59766;SDS011;46248;58.364;25.582;2023-07-13T00:12:25;6.13;;;3.67;;
59766;SDS011;46248;58.364;25.582;2023-07-13T00:15:48;3.97;;;2.88;;
59766;SDS011;46248;58.364;25.582;2023-07-13T00:19:11;4.93;;;3.10;;
59766;SDS011;46248;58.364;25.582;2023-07-13T00:22:34;6.75;;;3.75;;
59766;SDS011;46248;58.364;25.582;2023-07-13T00:25:57;6.47;;;3.17;;
59766;SDS011;46248;58.364;25.582;2023-07-13T00:29:18;5.35;;;3.17;;
59766;SDS011;46248;58.364;25.582;2023-07-13T00:32:41;4.90;;;3.20;;
59766;SDS011;46248;58.364;25.582;2023-07-13T00:36:03;5.65;;;3.35;;
59766;SDS011;46248;58.364;25.582;2023-07-13T00:39:27;6.13;;;3.20;;
59766;SDS011;46248;58.364;25.582;2023-07-13T00:42:51;5.45;;;2.70;;
59766;SDS011;46248;58.364;25.582;2023-07-13T00:46:18;5.88;;;3.45;;
59766;SDS011;46248;58.364;25.582;2023-07-13T00:49:42;5.32;;;3.13;;
59766;SDS011;46248;58.364;25.582;2023-07-13T00:53:04;6.03;;;3.15;;
59766;SDS011;46248;58.364;25.582;2023-07-13T00:56:27;3.33;;;2.85;;
59766;SDS011;46248;58.364;25.582;2023-07-13T00:59:51;3.83;;;3.03;;
59766;SDS011;46248;58.364;25.582;2023-07-13T01:03:17;4.63;;;2.95;;
59766;SDS011;46248;58.364;25.582;2023-07-13T01:06:39;4.13;;;2.70;;
59766;SDS011;46248;58.364;25.582;2023-07-13T01:10:04;4.63;;;2.72;;
59766;SDS011;46248;58.364;25.582;2023-07-13T01:13:28;2.72;;;2.22;;
59766;SDS011;46248;58.364;25.582;2023-07-13T01:16:50;2.75;;;1.98;;
59766;SDS011;46248;58.364;25.582;2023-07-13T01:20:12;5.05;;;2.22;;
59766;SDS011;46248;58.364;25.582;2023-07-13T01:23:35;2.35;;;1.67;;
59766;SDS011;46248;58.364;25.582;2023-07-13T01:26:57;4.15;;;2.38;;
59766;SDS011;46248;58.364;25.582;2023-07-13T01:30:19;3.60;;;1.92;;
59766;SDS011;46248;58.364;25.582;2023-07-13T01:33:41;2.85;;;1.98;;
59766;SDS011;46248;58.364;25.582;2023-07-13T01:37:03;3.45;;;2.42;;
59766;SDS011;46248;58.364;25.582;2023-07-13T01:40:27;3.88;;;2.10;;
59766;SDS011;46248;58.364;25.582;2023-07-13T01:43:51;2.83;;;2.03;;
59766;SDS011;46248;58.364;25.582;2023-07-13T01:47:12;2.10;;;1.77;;
59766;SDS011;46248;58.364;25.582;2023-07-13T01:50:34;3.13;;;2.20;;
59766;SDS011;46248;58.364;25.582;2023-07-13T01:53:56;2.95;;;1.83;;
59766;SDS011;46248;58.364;25.582;2023-07-13T01:57:19;3.60;;;2.00;;
59766;SDS011;46248;58.364;25.582;2023-07-13T02:00:41;3.00;;;1.90;;
59766;SDS011;46248;58.364;25.582;2023-07-13T02:04:03;2.15;;;1.83;;
59766;SDS011;46248;58.364;25.582;2023-07-13T02:07:25;1.92;;;1.52;;
59766;SDS011;46248;58.364;25.582;2023-07-13T02:10:47;3.08;;;1.70;;
59766;SDS011;46248;58.364;25.582;2023-07-13T02:14:11;2.20;;;1.95;;
59766;SDS011;46248;58.364;25.582;2023-07-13T02:17:33;2.70;;;1.80;;
59766;SDS011;46248;58.364;25.582;2023-07-13T02:20:56;4.10;;;1.77;;
59766;SDS011;46248;58.364;25.582;2023-07-13T02:24:18;2.78;;;1.90;;
59766;SDS011;46248;58.364;25.582;2023-07-13T02:27:41;5.13;;;1.95;;
59766;SDS011;46248;58.364;25.582;2023-07-13T02:31:08;3.05;;;1.73;;
59766;SDS011;46248;58.364;25.582;2023-07-13T02:34:32;1.95;;;1.73;;
59766;SDS011;46248;58.364;25.582;2023-07-13T02:37:54;4.38;;;1.50;;
59766;SDS011;46248;58.364;25.582;2023-07-13T02:41:16;4.75;;;1.70;;
59766;SDS011;46248;58.364;25.582;2023-07-13T02:44:38;3.05;;;1.67;;
59766;SDS011;46248;58.364;25.582;2023-07-13T02:48:01;3.42;;;1.42;;
59766;SDS011;46248;58.364;25.582;2023-07-13T02:51:23;1.55;;;1.30;;
59766;SDS011;46248;58.364;25.582;2023-07-13T02:54:45;2.55;;;1.65;;
59766;SDS011;46248;58.364;25.582;2023-07-13T02:58:07;2.15;;;1.60;;
59766;SDS011;46248;58.364;25.582;2023-07-13T03:01:29;1.80;;;1.30;;
59766;SDS011;46248;58.364;25.582;2023-07-13T03:04:56;2.55;;;1.70;;
59766;SDS011;46248;58.364;25.582;2023-07-13T03:08:18;2.20;;;1.63;;
59766;SDS011;46248;58.364;25.582;2023-07-13T03:11:40;1.95;;;1.67;;
59766;SDS011;46248;58.364;25.582;2023-07-13T03:15:02;3.45;;;1.33;;
59766;SDS011;46248;58.364;25.582;2023-07-13T03:18:25;2.15;;;1.50;;
59766;SDS011;46248;58.364;25.582;2023-07-13T03:21:49;2.38;;;1.63;;
59766;SDS011;46248;58.364;25.582;2023-07-13T03:25:11;2.92;;;1.88;;
59766;SDS011;46248;58.364;25.582;2023-07-13T03:28:33;2.95;;;1.90;;
59766;SDS011;46248;58.364;25.582;2023-07-13T03:31:55;2.20;;;1.70;;
59766;SDS011;46248;58.364;25.582;2023-07-13T03:35:17;3.72;;;2.35;;
59766;SDS011;46248;58.364;25.582;2023-07-13T03:38:40;2.35;;;2.15;;
59766;SDS011;46248;58.364;25.582;2023-07-13T03:42:04;3.70;;;2.40;;
59766;SDS011;46248;58.364;25.582;2023-07-13T03:45:27;6.03;;;2.75;;
59766;SDS011;46248;58.364;25.582;2023-07-13T03:48:49;4.03;;;2.70;;
59766;SDS011;46248;58.364;25.582;2023-07-13T03:52:11;4.68;;;2.88;;
59766;SDS011;46248;58.364;25.582;2023-07-13T03:55:34;4.15;;;2.65;;
59766;SDS011;46248;58.364;25.582;2023-07-13T03:58:57;5.95;;;2.45;;
59766;SDS011;46248;58.364;25.582;2023-07-13T04:02:19;5.32;;;2.95;;
59766;SDS011;46248;58.364;25.582;2023-07-13T04:05:42;6.25;;;2.80;;
59766;SDS011;46248;58.364;25.582;2023-07-13T04:09:03;5.10;;;3.20;;
59766;SDS011;46248;58.364;25.582;2023-07-13T04:12:27;9.27;;;4.20;;
59766;SDS011;46248;58.364;25.582;2023-07-13T04:15:50;10.95;;;4.10;;
59766;SDS011;46248;58.364;25.582;2023-07-13T04:19:13;6.00;;;3.38;;
59766;SDS011;46248;58.364;25.582;2023-07-13T04:22:35;6.78;;;3.00;;
59766;SDS011;46248;58.364;25.582;2023-07-13T04:25:57;5.97;;;2.72;;
59766;SDS011;46248;58.364;25.582;2023-07-13T04:29:20;3.30;;;2.15;;
59766;SDS011;46248;58.364;25.582;2023-07-13T04:32:41;2.90;;;2.08;;
59766;SDS011;46248;58.364;25.582;2023-07-13T04:36:03;3.20;;;2.30;;
59766;SDS011;46248;58.364;25.582;2023-07-13T04:39:25;4.40;;;2.40;;
59766;SDS011;46248;58.364;25.582;2023-07-13T04:42:47;2.83;;;2.30;;
59766;SDS011;46248;58.364;25.582;2023-07-13T04:46:11;5.40;;;2.60;;
59766;SDS011;46248;58.364;25.582;2023-07-13T04:49:34;3.58;;;2.20;;
59766;SDS011;46248;58.364;25.582;2023-07-13T04:52:56;3.63;;;2.20;;
59766;SDS011;46248;58.364;25.582;2023-07-13T04:56:19;2.88;;;2.05;;
59766;SDS011;46248;58.364;25.582;2023-07-13T04:59:41;3.20;;;2.03;;
59766;SDS011;46248;58.364;25.582;2023-07-13T05:03:04;2.60;;;1.60;;
59766;SDS011;46248;58.364;25.582;2023-07-13T05:06:26;1.70;;;1.60;;
59766;SDS011;46248;58.364;25.582;2023-07-13T05:09:48;2.50;;;1.70;;
59766;SDS011;46248;58.364;25.582;2023-07-13T05:13:10;3.13;;;1.98;;
59766;SDS011;46248;58.364;25.582;2023-07-13T05:16:32;2.72;;;1.65;;
59766;SDS011;46248;58.364;25.582;2023-07-13T05:19:55;1.75;;;1.65;;
59766;SDS011;46248;58.364;25.582;2023-07-13T05:23:17;3.58;;;2.10;;
59766;SDS011;46248;58.364;25.582;2023-07-13T05:26:39;1.88;;;1.60;;
59766;SDS011;46248;58.364;25.582;2023-07-13T05:30:01;4.47;;;1.98;;
59766;SDS011;46248;58.364;25.582;2023-07-13T05:33:24;4.93;;;2.40;;
59766;SDS011;46248;58.364;25.582;2023-07-13T05:36:48;3.30;;;2.55;;
59766;SDS011;46248;58.364;25.582;2023-07-13T05:40:10;2.58;;;1.77;;
59766;SDS011;46248;58.364;25.582;2023-07-13T05:43:32;6.65;;;1.70;;
59766;SDS011;46248;58.364;25.582;2023-07-13T05:46:54;2.58;;;1.45;;
59766;SDS011;46248;58.364;25.582;2023-07-13T05:50:17;1.80;;;1.40;;
59766;SDS011;46248;58.364;25.582;2023-07-13T05:53:40;2.72;;;1.90;;
59766;SDS011;46248;58.364;25.582;2023-07-13T05:57:02;3.92;;;1.70;;
59766;SDS011;46248;58.364;25.582;2023-07-13T06:00:24;2.28;;;1.63;;
59766;SDS011;46248;58.364;25.582;2023-07-13T06:03:46;7.15;;;1.90;;
59766;SDS011;46248;58.364;25.582;2023-07-13T06:07:08;1.60;;;1.50;;
59766;SDS011;46248;58.364;25.582;2023-07-13T06:10:33;2.90;;;1.85;;
59766;SDS011;46248;58.364;25.582;2023-07-13T06:13:55;1.77;;;1.30;;
59766;SDS011;46248;58.364;25.582;2023-07-13T06:17:17;5.45;;;1.95;;
59766;SDS011;46248;58.364;25.582;2023-07-13T06:20:39;1.80;;;1.33;;
59766;SDS011;46248;58.364;25.582;2023-07-13T06:24:01;3.47;;;1.90;;
59766;SDS011;46248;58.364;25.582;2023-07-13T06:27:24;5.25;;;2.10;;
59766;SDS011;46248;58.364;25.582;2023-07-13T06:30:50;5.03;;;1.45;;
59766;SDS011;46248;58.364;25.582;2023-07-13T06:34:11;2.58;;;1.92;;
59766;SDS011;46248;58.364;25.582;2023-07-13T06:37:33;3.45;;;1.95;;
59766;SDS011;46248;58.364;25.582;2023-07-13T06:40:55;6.35;;;1.88;;
59766;SDS011;46248;58.364;25.582;2023-07-13T06:44:18;2.25;;;1.50;;
59766;SDS011;46248;58.364;25.582;2023-07-13T06:47:40;4.20;;;1.30;;
59766;SDS011;46248;58.364;25.582;2023-07-13T06:51:03;2.38;;;1.25;;
59766;SDS011;46248;58.364;25.582;2023-07-13T06:54:25;4.88;;;2.20;;
59766;SDS011;46248;58.364;25.582;2023-07-13T06:57:47;1.90;;;1.60;;
59766;SDS011;46248;58.364;25.582;2023-07-13T07:01:10;3.00;;;1.35;;
59766;SDS011;46248;58.364;25.582;2023-07-13T07:04:32;3.90;;;1.50;;
59766;SDS011;46248;58.364;25.582;2023-07-13T07:07:54;2.40;;;1.50;;
59766;SDS011;46248;58.364;25.582;2023-07-13T07:11:17;5.70;;;2.10;;
59766;SDS011;46248;58.364;25.582;2023-07-13T07:14:44;4.07;;;1.45;;
59766;SDS011;46248;58.364;25.582;2023-07-13T07:18:07;1.88;;;1.77;;
59766;SDS011;46248;58.364;25.582;2023-07-13T07:21:29;3.08;;;1.50;;
59766;SDS011;46248;58.364;25.582;2023-07-13T07:24:51;4.55;;;2.28;;
59766;SDS011;46248;58.364;25.582;2023-07-13T07:28:14;3.50;;;2.13;;
59766;SDS011;46248;58.364;25.582;2023-07-13T07:31:41;3.25;;;1.95;;
59766;SDS011;46248;58.364;25.582;2023-07-13T07:35:07;3.08;;;1.77;;
59766;SDS011;46248;58.364;25.582;2023-07-13T07:38:29;1.98;;;1.75;;
59766;SDS011;46248;58.364;25.582;2023-07-13T07:41:51;2.45;;;1.73;;
59766;SDS011;46248;58.364;25.582;2023-07-13T07:45:16;2.33;;;1.90;;
59766;SDS011;46248;58.364;25.582;2023-07-13T07:48:38;3.25;;;2.00;;
59766;SDS011;46248;58.364;25.582;2023-07-13T07:52:01;4.00;;;2.10;;
59766;SDS011;46248;58.364;25.582;2023-07-13T07:55:23;3.30;;;1.67;;
59766;SDS011;46248;58.364;25.582;2023-07-13T07:58:49;3.35;;;2.03;;
59766;SDS011;46248;58.364;25.582;2023-07-13T08:02:14;3.92;;;1.85;;
59766;SDS011;46248;58.364;25.582;2023-07-13T08:05:55;2.75;;;1.70;;
59766;SDS011;46248;58.364;25.582;2023-07-13T08:09:39;2.55;;;1.88;;
59766;SDS011;46248;58.364;25.582;2023-07-13T08:13:01;4.80;;;2.15;;
59766;SDS011;46248;58.364;25.582;2023-07-13T08:16:25;4.28;;;1.80;;
59766;SDS011;46248;58.364;25.582;2023-07-13T08:19:48;6.50;;;1.80;;
59766;SDS011;46248;58.364;25.582;2023-07-13T08:23:09;2.58;;;1.92;;
59766;SDS011;46248;58.364;25.582;2023-07-13T08:26:32;4.47;;;1.98;;
59766;SDS011;46248;58.364;25.582;2023-07-13T08:29:54;4.95;;;1.95;;
59766;SDS011;46248;58.364;25.582;2023-07-13T08:33:17;2.90;;;1.73;;
59766;SDS011;46248;58.364;25.582;2023-07-13T08:36:39;3.97;;;1.92;;
59766;SDS011;46248;58.364;25.582;2023-07-13T08:40:01;6.43;;;2.47;;
59766;SDS011;46248;58.364;25.582;2023-07-13T08:43:27;5.45;;;2.65;;
59766;SDS011;46248;58.364;25.582;2023-07-13T08:46:51;5.20;;;2.95;;
59766;SDS011;46248;58.364;25.582;2023-07-13T08:50:17;6.85;;;2.70;;
59766;SDS011;46248;58.364;25.582;2023-07-13T08:53:42;4.90;;;2.35;;
59766;SDS011;46248;58.364;25.582;2023-07-13T08:57:10;4.25;;;2.28;;
59766;SDS011;46248;58.364;25.582;2023-07-13T09:00:37;6.88;;;2.42;;
59766;SDS011;46248;58.364;25.582;2023-07-13T09:04:08;5.50;;;2.20;;
59766;SDS011;46248;58.364;25.582;2023-07-13T09:07:39;6.45;;;2.85;;
59766;SDS011;46248;58.364;25.582;2023-07-13T09:11:12;5.43;;;2.30;;
59766;SDS011;46248;58.364;25.582;2023-07-13T09:14:45;3.60;;;2.67;;
59766;SDS011;46248;58.364;25.582;2023-07-13T09:18:13;4.75;;;2.70;;
59766;SDS011;46248;58.364;25.582;2023-07-13T09:21:42;4.97;;;2.08;;
59766;SDS011;46248;58.364;25.582;2023-07-13T09:25:23;2.67;;;2.47;;
59766;SDS011;46248;58.364;25.582;2023-07-13T09:28:48;2.72;;;2.00;;
59766;SDS011;46248;58.364;25.582;2023-07-13T09:32:14;6.72;;;2.78;;
59766;SDS011;46248;58.364;25.582;2023-07-13T09:35:43;6.38;;;3.00;;
59766;SDS011;46248;58.364;25.582;2023-07-13T09:39:09;4.10;;;2.20;;
59766;SDS011;46248;58.364;25.582;2023-07-13T09:46:24;3.80;;;2.60;;
59766;SDS011;46248;58.364;25.582;2023-07-13T09:49:45;3.33;;;2.85;;
59766;SDS011;46248;58.364;25.582;2023-07-13T09:53:12;4.13;;;2.83;;
59766;SDS011;46248;58.364;25.582;2023-07-13T09:56:35;4.43;;;2.50;;
59766;SDS011;46248;58.364;25.582;2023-07-13T09:59:58;5.60;;;3.00;;
59766;SDS011;46248;58.364;25.582;2023-07-13T10:03:22;4.55;;;2.35;;
59766;SDS011;46248;58.364;25.582;2023-07-13T10:06:45;4.88;;;2.65;;
59766;SDS011;46248;58.364;25.582;2023-07-13T10:10:15;4.13;;;2.83;;
59766;SDS011;46248;58.364;25.582;2023-07-13T10:13:40;6.97;;;3.10;;
59766;SDS011;46248;58.364;25.582;2023-07-13T10:17:04;3.72;;;2.25;;
59766;SDS011;46248;58.364;25.582;2023-07-13T10:20:30;3.88;;;2.92;;
59766;SDS011;46248;58.364;25.582;2023-07-13T10:23:52;5.38;;;2.70;;
59766;SDS011;46248;58.364;25.582;2023-07-13T10:27:20;5.22;;;3.30;;
59766;SDS011;46248;58.364;25.582;2023-07-13T10:30:46;4.15;;;3.38;;
59766;SDS011;46248;58.364;25.582;2023-07-13T10:34:11;4.82;;;3.28;;
59766;SDS011;46248;58.364;25.582;2023-07-13T10:37:36;3.97;;;2.97;;
59766;SDS011;46248;58.364;25.582;2023-07-13T10:41:05;5.20;;;3.70;;
59766;SDS011;46248;58.364;25.582;2023-07-13T10:44:32;6.40;;;3.65;;
59766;SDS011;46248;58.364;25.582;2023-07-13T10:47:55;4.57;;;3.15;;
59766;SDS011;46248;58.364;25.582;2023-07-13T10:51:17;4.32;;;3.15;;
59766;SDS011;46248;58.364;25.582;2023-07-13T10:54:41;3.20;;;2.90;;
59766;SDS011;46248;58.364;25.582;2023-07-13T11:01:41;3.30;;;3.00;;
59766;SDS011;46248;58.364;25.582;2023-07-13T11:05:17;3.80;;;3.13;;
59766;SDS011;46248;58.364;25.582;2023-07-13T11:08:52;30.15;;;6.03;;
59766;SDS011;46248;58.364;25.582;2023-07-13T11:12:26;4.32;;;3.13;;
59766;SDS011;46248;58.364;25.582;2023-07-13T11:16:21;3.38;;;3.10;;
59766;SDS011;46248;58.364;25.582;2023-07-13T11:20:08;3.55;;;3.10;;
59766;SDS011;46248;58.364;25.582;2023-07-13T11:23:41;6.85;;;3.72;;
59766;SDS011;46248;58.364;25.582;2023-07-13T11:27:14;10.55;;;4.55;;
59766;SDS011;46248;58.364;25.582;2023-07-13T11:30:46;4.25;;;3.85;;
59766;SDS011;46248;58.364;25.582;2023-07-13T11:34:11;4.72;;;4.28;;
59766;SDS011;46248;58.364;25.582;2023-07-13T11:37:37;6.03;;;4.28;;
59766;SDS011;46248;58.364;25.582;2023-07-13T11:41:00;5.65;;;4.50;;
59766;SDS011;46248;58.364;25.582;2023-07-13T11:44:26;7.65;;;4.13;;
59766;SDS011;46248;58.364;25.582;2023-07-13T11:47:49;4.05;;;3.38;;
59766;SDS011;46248;58.364;25.582;2023-07-13T11:51:15;6.25;;;3.35;;
59766;SDS011;46248;58.364;25.582;2023-07-13T11:54:46;7.25;;;3.90;;
59766;SDS011;46248;58.364;25.582;2023-07-13T11:58:19;4.57;;;3.28;;
59766;SDS011;46248;58.364;25.582;2023-07-13T12:01:45;4.18;;;2.95;;
59766;SDS011;46248;58.364;25.582;2023-07-13T12:05:13;4.15;;;3.05;;
59766;SDS011;46248;58.364;25.582;2023-07-13T12:08:37;4.80;;;4.28;;
59766;SDS011;46248;58.364;25.582;2023-07-13T12:12:08;6.68;;;4.43;;
59766;SDS011;46248;58.364;25.582;2023-07-13T12:15:35;5.30;;;3.90;;
59766;SDS011;46248;58.364;25.582;2023-07-13T12:19:00;6.65;;;4.32;;
59766;SDS011;46248;58.364;25.582;2023-07-13T12:22:23;10.60;;;5.25;;
59766;SDS011;46248;58.364;25.582;2023-07-13T12:25:46;6.95;;;5.57;;
59766;SDS011;46248;58.364;25.582;2023-07-13T12:29:13;9.10;;;5.35;;
59766;SDS011;46248;58.364;25.582;2023-07-13T12:32:37;9.98;;;5.93;;
59766;SDS011;46248;58.364;25.582;2023-07-13T12:36:00;6.10;;;5.32;;
59766;SDS011;46248;58.364;25.582;2023-07-13T12:39:26;10.20;;;5.85;;
59766;SDS011;46248;58.364;25.582;2023-07-13T12:42:53;5.85;;;4.95;;
59766;SDS011;46248;58.364;25.582;2023-07-13T12:46:18;6.35;;;4.20;;
59766;SDS011;46248;58.364;25.582;2023-07-13T12:49:43;4.57;;;4.00;;
59766;SDS011;46248;58.364;25.582;2023-07-13T12:53:12;5.20;;;4.35;;
59766;SDS011;46248;58.364;25.582;2023-07-13T12:56:35;4.97;;;3.83;;
59766;SDS011;46248;58.364;25.582;2023-07-13T12:59:57;4.97;;;4.28;;
59766;SDS011;46248;58.364;25.582;2023-07-13T13:03:23;4.60;;;4.10;;
59766;SDS011;46248;58.364;25.582;2023-07-13T13:06:58;5.13;;;4.63;;
59766;SDS011;46248;58.364;25.582;2023-07-13T13:10:23;6.00;;;4.85;;
59766;SDS011;46248;58.364;25.582;2023-07-13T13:13:46;6.60;;;4.72;;
59766;SDS011;46248;58.364;25.582;2023-07-13T13:17:14;6.05;;;5.03;;
59766;SDS011;46248;58.364;25.582;2023-07-13T13:20:41;4.50;;;4.07;;
59766;SDS011;46248;58.364;25.582;2023-07-13T13:24:04;8.07;;;4.38;;
59766;SDS011;46248;58.364;25.582;2023-07-13T13:27:30;4.10;;;3.70;;
59766;SDS011;46248;58.364;25.582;2023-07-13T13:30:52;7.75;;;4.18;;
59766;SDS011;46248;58.364;25.582;2023-07-13T13:34:14;6.72;;;3.50;;
59766;SDS011;46248;58.364;25.582;2023-07-13T13:37:39;4.65;;;4.00;;
59766;SDS011;46248;58.364;25.582;2023-07-13T13:41:02;4.65;;;3.67;;
59766;SDS011;46248;58.364;25.582;2023-07-13T13:44:24;4.70;;;3.47;;
59766;SDS011;46248;58.364;25.582;2023-07-13T13:47:46;4.18;;;3.72;;
59766;SDS011;46248;58.364;25.582;2023-07-13T13:51:12;4.95;;;3.78;;
59766;SDS011;46248;58.364;25.582;2023-07-13T13:54:37;6.57;;;4.18;;
59766;SDS011;46248;58.364;25.582;2023-07-13T13:58:01;4.68;;;3.20;;
59766;SDS011;46248;58.364;25.582;2023-07-13T14:01:23;6.55;;;4.30;;
59766;SDS011;46248;58.364;25.582;2023-07-13T14:04:45;6.68;;;3.67;;
59766;SDS011;46248;58.364;25.582;2023-07-13T14:08:08;5.32;;;3.35;;
59766;SDS011;46248;58.364;25.582;2023-07-13T14:11:35;4.70;;;3.00;;
59766;SDS011;46248;58.364;25.582;2023-07-13T14:14:57;4.57;;;3.47;;
59766;SDS011;46248;58.364;25.582;2023-07-13T14:18:19;3.58;;;3.28;;
59766;SDS011;46248;58.364;25.582;2023-07-13T14:21:41;4.13;;;2.72;;
59766;SDS011;46248;58.364;25.582;2023-07-13T14:25:03;5.18;;;3.17;;
59766;SDS011;46248;58.364;25.582;2023-07-13T14:28:27;4.45;;;3.65;;
59766;SDS011;46248;58.364;25.582;2023-07-13T14:31:49;4.93;;;2.90;;
59766;SDS011;46248;58.364;25.582;2023-07-13T14:35:12;6.32;;;3.78;;
59766;SDS011;46248;58.364;25.582;2023-07-13T14:38:36;4.80;;;2.97;;
59766;SDS011;46248;58.364;25.582;2023-07-13T14:41:57;3.42;;;3.13;;
59766;SDS011;46248;58.364;25.582;2023-07-13T14:45:21;4.55;;;2.92;;
59766;SDS011;46248;58.364;25.582;2023-07-13T14:48:42;3.88;;;2.55;;
59766;SDS011;46248;58.364;25.582;2023-07-13T14:52:08;3.83;;;2.08;;
59766;SDS011;46248;58.364;25.582;2023-07-13T14:55:32;2.85;;;2.40;;
59766;SDS011;46248;58.364;25.582;2023-07-13T14:58:55;2.35;;;2.05;;
59766;SDS011;46248;58.364;25.582;2023-07-13T15:02:18;4.30;;;2.20;;
59766;SDS011;46248;58.364;25.582;2023-07-13T15:05:46;4.20;;;2.38;;
59766;SDS011;46248;58.364;25.582;2023-07-13T15:09:07;6.47;;;3.60;;
59766;SDS011;46248;58.364;25.582;2023-07-13T15:12:32;5.70;;;3.15;;
59766;SDS011;46248;58.364;25.582;2023-07-13T15:15:55;2.35;;;1.70;;
59766;SDS011;46248;58.364;25.582;2023-07-13T15:19:18;2.05;;;1.65;;
59766;SDS011;46248;58.364;25.582;2023-07-13T15:22:41;3.75;;;2.63;;
59766;SDS011;46248;58.364;25.582;2023-07-13T15:26:03;2.70;;;2.03;;
59766;SDS011;46248;58.364;25.582;2023-07-13T15:29:27;9.63;;;4.35;;
59766;SDS011;46248;58.364;25.582;2023-07-13T15:32:48;7.75;;;4.40;;
59766;SDS011;46248;58.364;25.582;2023-07-13T15:36:12;6.32;;;3.67;;
59766;SDS011;46248;58.364;25.582;2023-07-13T15:39:33;6.30;;;3.83;;
59766;SDS011;46248;58.364;25.582;2023-07-13T15:42:57;2.92;;;2.53;;
59766;SDS011;46248;58.364;25.582;2023-07-13T15:46:19;4.40;;;2.47;;
59766;SDS011;46248;58.364;25.582;2023-07-13T15:49:42;2.03;;;1.60;;
59766;SDS011;46248;58.364;25.582;2023-07-13T15:53:08;2.10;;;1.70;;
59766;SDS011;46248;58.364;25.582;2023-07-13T15:56:32;3.15;;;2.08;;
59766;SDS011;46248;58.364;25.582;2023-07-13T15:59:56;4.47;;;2.60;;
59766;SDS011;46248;58.364;25.582;2023-07-13T16:03:19;2.85;;;2.00;;
59766;SDS011;46248;58.364;25.582;2023-07-13T16:06:42;2.90;;;2.08;;
59766;SDS011;46248;58.364;25.582;2023-07-13T16:10:07;5.00;;;2.92;;
59766;SDS011;46248;58.364;25.582;2023-07-13T16:13:34;1.90;;;1.80;;
59766;SDS011;46248;58.364;25.582;2023-07-13T16:16:55;2.70;;;1.35;;
59766;SDS011;46248;58.364;25.582;2023-07-13T16:20:18;4.80;;;2.33;;
59766;SDS011;46248;58.364;25.582;2023-07-13T16:23:41;4.05;;;1.60;;
59766;SDS011;46248;58.364;25.582;2023-07-13T16:27:23;2.33;;;2.03;;
59766;SDS011;46248;58.364;25.582;2023-07-13T16:30:46;3.63;;;2.50;;
59766;SDS011;46248;58.364;25.582;2023-07-13T16:34:09;2.17;;;1.40;;
59766;SDS011;46248;58.364;25.582;2023-07-13T16:37:30;2.47;;;1.15;;
59766;SDS011;46248;58.364;25.582;2023-07-13T16:40:55;1.00;;;1.00;;
59766;SDS011;46248;58.364;25.582;2023-07-13T16:44:19;2.08;;;1.20;;
59766;SDS011;46248;58.364;25.582;2023-07-13T16:47:42;1.20;;;1.10;;
59766;SDS011;46248;58.364;25.582;2023-07-13T16:51:06;4.32;;;1.20;;
59766;SDS011;46248;58.364;25.582;2023-07-13T16:54:29;1.13;;;1.10;;
59766;SDS011;46248;58.364;25.582;2023-07-13T16:57:53;1.38;;;1.13;;
59766;SDS011;46248;58.364;25.582;2023-07-13T17:01:19;1.38;;;1.27;;
59766;SDS011;46248;58.364;25.582;2023-07-13T17:04:42;1.15;;;1.15;;
59766;SDS011;46248;58.364;25.582;2023-07-13T17:08:10;0.88;;;0.88;;
59766;SDS011;46248;58.364;25.582;2023-07-13T17:11:34;1.33;;;1.10;;
59766;SDS011;46248;58.364;25.582;2023-07-13T17:15:01;1.08;;;0.98;;
59766;SDS011;46248;58.364;25.582;2023-07-13T17:18:26;1.90;;;1.10;;
59766;SDS011;46248;58.364;25.582;2023-07-13T17:21:56;3.03;;;1.10;;
59766;SDS011;46248;58.364;25.582;2023-07-13T17:25:25;3.50;;;1.20;;
59766;SDS011;46248;58.364;25.582;2023-07-13T17:28:47;2.08;;;1.40;;
59766;SDS011;46248;58.364;25.582;2023-07-13T17:32:10;1.67;;;0.93;;
59766;SDS011;46248;58.364;25.582;2023-07-13T17:35:38;2.80;;;1.30;;
59766;SDS011;46248;58.364;25.582;2023-07-13T17:39:00;3.17;;;1.23;;
59766;SDS011;46248;58.364;25.582;2023-07-13T17:42:24;1.25;;;1.15;;
59766;SDS011;46248;58.364;25.582;2023-07-13T17:45:46;2.40;;;1.10;;
59766;SDS011;46248;58.364;25.582;2023-07-13T17:49:13;7.35;;;1.50;;
59766;SDS011;46248;58.364;25.582;2023-07-13T17:52:41;2.13;;;1.40;;
59766;SDS011;46248;58.364;25.582;2023-07-13T17:56:04;3.75;;;1.77;;
59766;SDS011;46248;58.364;25.582;2023-07-13T17:59:26;4.95;;;1.30;;
59766;SDS011;46248;58.364;25.582;2023-07-13T18:02:49;2.97;;;1.20;;
59766;SDS011;46248;58.364;25.582;2023-07-13T18:06:11;3.95;;;1.05;;
59766;SDS011;46248;58.364;25.582;2023-07-13T18:09:39;2.22;;;1.00;;
59766;SDS011;46248;58.364;25.582;2023-07-13T18:13:01;2.10;;;1.10;;
59766;SDS011;46248;58.364;25.582;2023-07-13T18:16:24;1.55;;;1.38;;
59766;SDS011;46248;58.364;25.582;2023-07-13T18:19:48;2.25;;;1.48;;
59766;SDS011;46248;58.364;25.582;2023-07-13T18:23:15;1.20;;;1.10;;
59766;SDS011;46248;58.364;25.582;2023-07-13T18:26:40;4.45;;;1.33;;
59766;SDS011;46248;58.364;25.582;2023-07-13T18:30:02;2.15;;;1.30;;
59766;SDS011;46248;58.364;25.582;2023-07-13T18:33:28;2.28;;;1.25;;
59766;SDS011;46248;58.364;25.582;2023-07-13T18:36:52;1.40;;;1.23;;
59766;SDS011;46248;58.364;25.582;2023-07-13T18:40:16;2.88;;;1.67;;
59766;SDS011;46248;58.364;25.582;2023-07-13T18:43:41;1.83;;;1.45;;
59766;SDS011;46248;58.364;25.582;2023-07-13T18:47:04;3.85;;;1.60;;
59766;SDS011;46248;58.364;25.582;2023-07-13T18:50:29;2.50;;;1.48;;
59766;SDS011;46248;58.364;25.582;2023-07-13T18:53:53;2.85;;;1.75;;
59766;SDS011;46248;58.364;25.582;2023-07-13T18:57:16;1.20;;;1.13;;
59766;SDS011;46248;58.364;25.582;2023-07-13T19:00:41;4.07;;;1.20;;
59766;SDS011;46248;58.364;25.582;2023-07-13T19:04:12;4.05;;;1.30;;
59766;SDS011;46248;58.364;25.582;2023-07-13T19:07:47;2.30;;;1.77;;
59766;SDS011;46248;58.364;25.582;2023-07-13T19:11:10;2.00;;;1.63;;
59766;SDS011;46248;58.364;25.582;2023-07-13T19:14:35;2.42;;;1.80;;
59766;SDS011;46248;58.364;25.582;2023-07-13T19:17:59;1.65;;;1.50;;
59766;SDS011;46248;58.364;25.582;2023-07-13T19:21:26;2.17;;;1.00;;
59766;SDS011;46248;58.364;25.582;2023-07-13T19:24:55;3.60;;;1.23;;
59766;SDS011;46248;58.364;25.582;2023-07-13T19:28:24;1.45;;;1.00;;
59766;SDS011;46248;58.364;25.582;2023-07-13T19:31:49;2.67;;;1.08;;
59766;SDS011;46248;58.364;25.582;2023-07-13T19:35:12;2.03;;;1.23;;
59766;SDS011;46248;58.364;25.582;2023-07-13T19:38:34;1.00;;;0.80;;
59766;SDS011;46248;58.364;25.582;2023-07-13T19:41:56;1.52;;;0.95;;
59766;SDS011;46248;58.364;25.582;2023-07-13T19:45:23;2.50;;;1.10;;
59766;SDS011;46248;58.364;25.582;2023-07-13T19:48:45;3.28;;;1.30;;
59766;SDS011;46248;58.364;25.582;2023-07-13T19:52:10;1.10;;;1.00;;
59766;SDS011;46248;58.364;25.582;2023-07-13T19:55:32;1.40;;;0.98;;
59766;SDS011;46248;58.364;25.582;2023-07-13T19:58:54;2.60;;;1.00;;
59766;SDS011;46248;58.364;25.582;2023-07-13T20:02:16;4.20;;;1.05;;
59766;SDS011;46248;58.364;25.582;2023-07-13T20:05:39;1.17;;;0.90;;
59766;SDS011;46248;58.364;25.582;2023-07-13T20:09:05;1.48;;;0.70;;
59766;SDS011;46248;58.364;25.582;2023-07-13T20:12:52;1.40;;;0.70;;
59766;SDS011;46248;58.364;25.582;2023-07-13T20:16:14;1.80;;;0.80;;
59766;SDS011;46248;58.364;25.582;2023-07-13T20:19:37;1.17;;;0.63;;